Time;durP1;ratioP1;P1;durP2;ratioP2;P2;SDS_P1;SDS_P2;PMS_P1;PMS_P2;Temp;Humidity;BMP_temperature;BMP_pressure;BME280_temperature;BME280_humidity;BME280_pressure;Samples;Min_cycle;Max_cycle;Signal;HPM_P1;HPM_P2
2022/01/25 00:29:14;;;;;;;154.90;61.38;;;;;;;-13.08;73.70;99286.25;10380196;28;20079;-59
2022/01/25 00:34:13;;;;;;;113.05;47.90;;;;;;;-13.19;74.66;99295.91;10381892;28;20064;-59
2022/01/25 00:39:12;;;;;;;115.07;49.35;;;;;;;-13.36;75.03;99290.56;10382093;28;20037;-59
2022/01/25 00:44:12;;;;;;;126.72;51.65;;;;;;;-13.32;74.81;99283.59;10377451;28;20036;-59
2022/01/25 00:49:19;;;;;;;165.38;71.70;;;;;;;-13.77;74.67;99220.16;10381417;28;20069;-59
2022/01/25 00:59:24;;;;;;;115.18;46.67;;;;;;;-13.99;74.40;99236.75;10381040;28;20087;-59
2022/01/25 01:04:25;;;;;;;128.55;51.60;;;;;;;-13.54;73.99;99306.81;10380646;28;20080;-59
2022/01/25 01:09:24;;;;;;;97.20;41.97;;;;;;;-13.54;73.85;99294.34;10379072;28;20056;-59
2022/01/25 01:50:47;;;;;;;152.38;59.70;;;;;;;-13.95;73.96;99250.44;10337887;28;20061;-59
2022/01/25 01:55:46;;;;;;;144.20;59.28;;;;;;;-14.00;73.66;99264.88;10337913;28;20095;-59
2022/01/25 02:00:48;;;;;;;132.05;56.55;;;;;;;-14.18;74.94;99253.66;10337322;28;20033;-59
2022/01/25 02:05:47;;;;;;;124.40;49.22;;;;;;;-14.03;74.34;99254.56;10337153;28;20084;-59
2022/01/25 02:10:46;;;;;;;122.53;48.67;;;;;;;-13.97;73.93;99250.28;10337352;28;20025;-59
2022/01/25 02:15:47;;;;;;;97.28;40.78;;;;;;;-13.95;74.03;99237.97;10336085;28;20075;-59
2022/01/25 02:26:06;;;;;;;93.82;38.47;;;;;;;-14.26;73.97;99163.69;10378216;28;20574;-59
2022/01/25 02:31:07;;;;;;;88.43;34.50;;;;;;;-13.97;73.21;99235.31;10377438;28;20053;-59
2022/01/25 02:36:12;;;;;;;89.40;33.20;;;;;;;-14.00;73.31;99224.09;10377047;28;20068;-59
2022/01/25 02:41:11;;;;;;;92.65;38.60;;;;;;;-14.48;73.18;99176.16;10376900;28;20056;-59
2022/01/25 02:51:09;;;;;;;122.55;44.83;;;;;;;-14.63;72.98;99222.56;10373384;28;20020;-59
2022/01/25 02:56:08;;;;;;;134.88;53.22;;;;;;;-14.94;72.88;99185.63;10376433;28;20028;-59
2022/01/25 03:01:07;;;;;;;107.63;43.17;;;;;;;-14.78;73.11;99209.91;10376084;28;20032;-59
2022/01/25 03:06:06;;;;;;;95.18;39.58;;;;;;;-15.35;72.35;99138.34;10375906;28;20499;-59
2022/01/25 03:11:05;;;;;;;89.55;39.13;;;;;;;-15.04;72.34;99177.78;10376010;28;20088;-59
2022/01/25 03:16:17;;;;;;;90.25;35.13;;;;;;;-15.53;72.32;99092.25;10375201;28;20056;-59
2022/01/25 03:26:27;;;;;;;89.40;35.95;;;;;;;-14.97;72.25;99149.53;10375646;28;20111;-59
2022/01/25 03:31:26;;;;;;;80.13;32.45;;;;;;;-16.02;71.90;98955.47;10374927;28;20138;-59
2022/01/25 03:36:25;;;;;;;108.00;44.90;;;;;;;-14.94;73.17;99134.94;10374670;28;20068;-59
2022/01/25 03:41:26;;;;;;;118.25;48.55;;;;;;;-15.47;72.79;99041.63;10372859;28;20485;-59
2022/01/25 03:46:35;;;;;;;127.55;52.85;;;;;;;-15.07;72.93;99115.16;10373197;28;20068;-59
2022/01/25 03:51:34;;;;;;;151.45;56.95;;;;;;;-15.14;73.80;99123.50;10370799;28;20057;-59
2022/01/25 03:56:33;;;;;;;154.68;63.38;;;;;;;-15.25;73.21;99112.25;10374418;28;20072;-59
2022/01/25 04:01:34;;;;;;;152.48;55.38;;;;;;;-15.18;73.00;99120.47;10373322;28;20488;-60
2022/01/25 04:06:35;;;;;;;108.60;41.45;;;;;;;-15.28;72.73;99141.78;10374264;28;20516;-59
2022/01/25 04:11:36;;;;;;;99.28;40.65;;;;;;;-15.40;72.01;99131.91;10373875;28;20068;-59
2022/01/25 04:16:42;;;;;;;96.15;40.17;;;;;;;-15.85;72.06;99098.31;10373775;28;20057;-59
2022/01/25 04:24:42;;;;;;;98.55;39.00;;;;;;;-15.82;71.37;99086.25;10358845;28;20119;-59
2022/01/25 04:27:02;;;;;;;101.05;38.72;;;;;;;-15.87;71.57;99078.22;10332716;28;20081;-59
2022/01/25 04:32:02;;;;;;;163.13;61.88;;;;;;;-15.80;71.78;99124.63;10332565;28;20095;-59
2022/01/25 04:52:59;;;;;;;103.33;39.50;;;;;;;-15.98;73.72;99125.75;10343496;28;20064;-59
2022/01/25 04:58:06;;;;;;;86.10;34.47;;;;;;;-15.89;73.72;99119.44;10373102;28;20480;-59
2022/01/25 05:18:35;;;;;;;125.35;51.20;;;;;;;-15.85;72.70;99093.34;10380330;28;20087;-59
2022/01/25 05:23:34;;;;;;;172.13;67.97;;;;;;;-15.86;73.40;99099.94;10363851;28;20064;-59
2022/01/25 05:28:33;;;;;;;212.50;83.95;;;;;;;-15.98;74.38;99088.47;10337880;28;20052;-60
2022/01/25 05:33:32;;;;;;;153.70;62.40;;;;;;;-16.13;73.76;99083.41;10384003;28;20053;-59
2022/01/25 05:38:31;;;;;;;134.40;56.42;;;;;;;-16.07;73.68;99093.22;10378627;28;20051;-59
2022/01/25 05:48:31;;;;;;;162.85;63.45;;;;;;;-16.01;72.80;99098.03;10310962;28;20536;-59
2022/01/25 05:53:31;;;;;;;133.10;52.67;;;;;;;-15.86;72.87;99109.88;10336942;28;20883;-59
2022/01/25 05:58:30;;;;;;;158.20;65.75;;;;;;;-15.77;72.84;99091.09;10335537;28;20057;-59
2022/01/25 06:03:29;;;;;;;167.23;69.40;;;;;;;-15.64;73.76;99088.47;10332121;28;20096;-59
2022/01/25 06:08:28;;;;;;;167.38;65.22;;;;;;;-15.54;73.57;99092.97;10308104;28;20022;-59
2022/01/25 06:13:27;;;;;;;161.88;67.22;;;;;;;-15.34;73.07;99073.81;10336965;28;20037;-59
2022/01/25 06:18:26;;;;;;;209.05;89.68;;;;;;;-15.80;73.68;99030.13;10336734;28;20060;-59
2022/01/25 06:23:25;;;;;;;172.95;63.15;;;;;;;-15.57;73.05;99095.09;10309320;28;20030;-59
2022/01/25 06:28:24;;;;;;;182.98;68.65;;;;;;;-15.68;72.72;99084.75;10313025;28;20565;-59
2022/01/25 06:33:23;;;;;;;142.50;55.08;;;;;;;-15.71;72.89;99076.00;10334908;28;20503;-59
2022/01/25 06:38:22;;;;;;;123.53;51.30;;;;;;;-15.74;72.45;99081.50;10333883;28;20025;-59
2022/01/25 06:43:21;;;;;;;120.00;50.83;;;;;;;-15.82;72.52;99072.22;10326873;28;20061;-59
2022/01/25 06:48:20;;;;;;;150.07;62.72;;;;;;;-15.78;72.16;99075.97;10322349;28;20062;-59
2022/01/25 06:53:20;;;;;;;145.35;60.70;;;;;;;-15.80;72.21;99065.84;10313806;28;20083;-59
2022/01/25 06:58:19;;;;;;;168.35;70.95;;;;;;;-15.89;71.66;99039.84;10322836;28;20061;-59
2022/01/25 07:03:18;;;;;;;173.30;72.28;;;;;;;-16.16;72.39;98986.09;10295937;28;20124;-59
2022/01/25 07:08:17;;;;;;;132.38;55.88;;;;;;;-15.53;71.75;99062.38;10329900;28;20061;-59
2022/01/25 07:13:16;;;;;;;147.48;60.05;;;;;;;-15.15;71.86;99053.59;10334647;28;20037;-59
2022/01/25 07:18:15;;;;;;;128.63;49.90;;;;;;;-15.23;71.87;98997.94;10334474;28;20070;-59
2022/01/25 07:23:14;;;;;;;130.30;53.45;;;;;;;-14.67;71.34;99048.53;10333472;28;20060;-59
2022/01/25 07:28:13;;;;;;;148.20;64.00;;;;;;;-14.46;71.56;99052.63;10334481;28;20089;-59
2022/01/25 07:33:12;;;;;;;159.60;70.38;;;;;;;-14.69;71.78;98972.72;10294444;28;20088;-59
2022/01/25 07:38:14;;;;;;;158.60;68.20;;;;;;;-14.08;71.65;99041.13;10306587;28;20060;-59
2022/01/25 07:43:13;;;;;;;157.00;71.85;;;;;;;-14.27;71.76;98952.53;10305668;28;20060;-60
2022/01/25 07:48:14;;;;;;;160.65;72.53;;;;;;;-13.63;72.18;99017.09;10333765;28;20033;-59
2022/01/25 07:53:13;;;;;;;168.93;70.45;;;;;;;-13.39;72.01;99025.56;10331886;28;20676;-60
2022/01/25 07:58:12;;;;;;;173.90;81.35;;;;;;;-13.05;71.77;99034.31;10321729;28;20061;-59
2022/01/25 08:03:11;;;;;;;152.02;68.13;;;;;;;-13.56;71.96;98954.66;10310134;28;20072;-59
2022/01/25 08:08:10;;;;;;;160.65;74.70;;;;;;;-12.97;71.65;99028.53;10291152;28;20070;-59
2022/01/25 08:13:10;;;;;;;186.98;85.10;;;;;;;-12.81;71.46;99026.06;10303942;28;20060;-59
2022/01/25 08:18:09;;;;;;;238.52;100.32;;;;;;;-12.74;71.81;99026.91;10313386;28;20034;-59
2022/01/25 08:23:08;;;;;;;269.85;118.93;;;;;;;-12.55;71.51;99026.41;10311595;28;20099;-59
2022/01/25 08:28:07;;;;;;;283.75;129.35;;;;;;;-12.76;71.46;98967.47;10310885;28;20036;-59
2022/01/25 08:33:06;;;;;;;280.60;131.45;;;;;;;-12.45;71.84;98974.13;10318310;28;20033;-59
2022/01/25 08:38:05;;;;;;;294.10;131.45;;;;;;;-12.25;71.54;98943.78;10318840;28;20034;-60
2022/01/25 08:43:04;;;;;;;302.13;141.00;;;;;;;-11.52;70.07;99000.66;10323602;28;20065;-60
2022/01/25 08:48:04;;;;;;;296.23;141.10;;;;;;;-11.32;70.08;98986.81;10330725;28;20072;-61
2022/01/25 08:53:03;;;;;;;330.65;151.20;;;;;;;-10.94;70.27;98985.69;10321313;28;20076;-61
2022/01/25 08:58:02;;;;;;;321.67;159.88;;;;;;;-10.84;69.96;98972.44;10329670;28;20026;-60
2022/01/25 09:03:01;;;;;;;311.95;150.75;;;;;;;-10.66;69.18;98969.28;10319769;28;20520;-61
2022/01/25 09:08:01;;;;;;;281.38;128.02;;;;;;;-10.89;70.14;98888.38;10339715;28;20101;-61
2022/01/25 09:13:02;;;;;;;276.35;134.13;;;;;;;-10.32;69.88;98952.56;10302377;28;20155;-61
2022/01/25 09:18:01;;;;;;;228.85;115.28;;;;;;;-10.62;70.68;98875.16;10298689;28;20076;-60
2022/01/25 09:23:00;;;;;;;187.07;91.40;;;;;;;-10.63;70.19;98874.28;10331450;28;20033;-61
2022/01/25 09:28:00;;;;;;;143.38;73.32;;;;;;;-9.99;70.46;98939.94;10338831;28;20095;-60
2022/01/25 09:32:59;;;;;;;126.22;61.38;;;;;;;-9.79;70.01;98935.97;10325633;28;20496;-60
2022/01/25 09:37:58;;;;;;;104.97;49.33;;;;;;;-9.49;69.34;98940.53;10332626;28;20061;-60
2022/01/25 09:42:58;;;;;;;94.57;47.42;;;;;;;-9.28;69.30;98937.50;10307789;28;20034;-61
2022/01/25 09:47:57;;;;;;;89.72;41.35;;;;;;;-9.39;68.35;98860.22;10313751;28;20519;-61
2022/01/25 09:52:58;;;;;;;92.32;45.00;;;;;;;-8.90;67.69;98915.06;10337739;28;20088;-60
2022/01/25 09:57:58;;;;;;;100.80;50.30;;;;;;;-8.67;69.18;98897.06;10337333;28;20068;-60
2022/01/25 10:08:14;;;;;;;100.43;49.58;;;;;;;-8.30;67.08;98895.41;10296675;28;20125;-60
2022/01/25 10:13:29;;;;;;;101.13;50.22;;;;;;;-7.99;66.80;98888.06;10296333;28;20069;-60
2022/01/25 10:18:37;;;;;;;104.82;49.35;;;;;;;-7.75;66.11;98874.22;10296143;28;20072;-60
2022/01/25 10:23:36;;;;;;;115.75;57.50;;;;;;;-7.74;66.23;98843.25;10302646;28;20068;-60
2022/01/25 10:28:35;;;;;;;;;;;;;;;-7.46;65.53;98860.75;10333064;28;20065;-60
2022/01/25 10:33:43;;;;;;;134.07;66.47;;;;;;;-7.11;65.88;98850.28;10295535;28;20376;-60
2022/01/25 10:38:44;;;;;;;135.38;65.38;;;;;;;-7.02;65.20;98846.03;10310815;28;20069;-60
2022/01/25 10:43:45;;;;;;;145.32;75.47;;;;;;;-6.78;64.52;98850.59;10295019;28;20073;-60
2022/01/25 10:48:47;;;;;;;149.93;74.50;;;;;;;-6.71;64.59;98841.91;10295910;28;20065;-60
2022/01/25 10:53:57;;;;;;;143.40;68.88;;;;;;;-6.52;64.25;98826.66;10317182;28;20479;-60
2022/01/25 10:59:01;;;;;;;89.93;47.25;;;;;;;-6.37;63.93;98817.78;10335291;28;20065;-60
2022/01/25 11:04:13;;;;;;;80.95;40.55;;;;;;;-6.31;63.28;98807.31;10334525;28;20088;-60
2022/01/25 11:09:13;;;;;;;94.28;50.20;;;;;;;-6.24;63.15;98786.84;10335181;28;20068;-61
2022/01/25 11:19:32;;;;;;;90.13;48.22;;;;;;;-5.67;61.37;98778.72;10334804;28;20061;-61
2022/01/25 11:24:34;;;;;;;82.30;43.67;;;;;;;-6.39;60.44;98640.00;10334556;28;20033;-61
2022/01/25 11:29:39;;;;;;;105.35;53.78;;;;;;;-5.86;60.52;98710.69;10334174;28;20065;-60
2022/01/25 11:34:40;;;;;;;108.75;59.28;;;;;;;-5.41;60.15;98764.69;10334333;28;20113;-61
2022/01/25 11:39:42;;;;;;;127.63;68.75;;;;;;;-5.09;61.58;98754.53;10334066;28;20484;-60
2022/01/25 11:44:52;;;;;;;111.13;54.95;;;;;;;-4.96;60.25;98753.78;10332830;28;20076;-60
2022/01/25 11:50:00;;;;;;;83.85;43.90;;;;;;;-4.98;58.68;98746.09;10333710;28;20053;-60
2022/01/25 11:55:33;;;;;;;67.35;36.95;;;;;;;-5.01;58.91;98747.50;10332133;28;20511;-60
2022/01/25 12:00:44;;;;;;;95.90;50.05;;;;;;;-5.13;59.29;98674.94;10334491;28;20065;-61
2022/01/25 12:06:24;;;;;;;77.28;38.13;;;;;;;-4.42;57.17;98740.91;10332471;28;20073;-60
2022/01/25 12:11:37;;;;;;;55.67;30.53;;;;;;;-4.32;55.45;98725.63;10330680;28;20538;-58
2022/01/25 12:16:46;;;;;;;49.35;28.35;;;;;;;-4.27;55.91;98723.44;10333154;28;20679;-59
2022/01/25 12:21:45;;;;;;;65.28;37.53;;;;;;;-4.06;55.88;98716.50;10331428;28;20126;-58
2022/01/25 12:27:02;;;;;;;;;;;;;;;-3.89;55.33;98718.56;10313483;28;20061;-59
2022/01/25 12:32:25;;;;;;;61.70;33.85;;;;;;;-3.68;54.72;98710.69;10336662;28;19968;-59
2022/01/25 12:37:42;;;;;;;55.20;30.65;;;;;;;-3.49;52.88;98692.56;10341133;28;20089;-59
2022/01/25 12:42:42;;;;;;;51.45;29.50;;;;;;;-3.42;50.99;98684.59;10340410;28;20568;-58
2022/01/25 12:47:53;;;;;;;56.05;30.52;;;;;;;-3.38;51.03;98654.47;10302325;28;20069;-61
2022/01/25 12:52:52;;;;;;;55.95;32.17;;;;;;;-3.02;50.21;98666.97;10314487;28;20068;-61
2022/01/25 12:57:54;;;;;;;57.85;33.70;;;;;;;-2.83;50.35;98653.84;10340557;28;20061;-61
2022/01/25 13:03:08;;;;;;;38.80;21.20;;;;;;;-2.71;48.10;98662.25;10339772;28;20085;-58
2022/01/25 13:08:19;;;;;;;67.75;39.45;;;;;;;-2.66;47.12;98649.84;10339893;28;20111;-58
2022/01/25 13:13:30;;;;;;;73.25;41.67;;;;;;;-2.68;46.29;98634.53;10339308;28;20083;-58
2022/01/25 13:18:31;;;;;;;67.47;36.85;;;;;;;-3.10;46.66;98564.06;10338419;28;20057;-58
2022/01/25 13:23:31;;;;;;;63.65;36.50;;;;;;;-3.06;45.88;98574.50;10338950;28;20065;-61
2022/01/25 13:28:51;;;;;;;75.90;42.70;;;;;;;-2.57;46.05;98636.09;10338504;28;20073;-58
2022/01/25 13:33:53;;;;;;;72.17;43.73;;;;;;;-3.08;46.41;98532.91;10297193;28;20441;-58
2022/01/25 13:38:52;;;;;;;70.93;41.92;;;;;;;-2.76;46.03;98574.72;10297506;28;20065;-58
2022/01/25 13:49:13;;;;;;;62.67;36.17;;;;;;;-2.40;46.36;98615.97;10337884;28;20068;-59
2022/01/25 13:54:15;;;;;;;56.65;30.27;;;;;;;-2.44;47.30;98616.56;10337431;28;20067;-59
2022/01/25 13:59:15;;;;;;;43.50;23.08;;;;;;;-2.51;45.30;98613.59;10337426;28;20069;-58
2022/01/25 14:04:18;;;;;;;55.55;30.70;;;;;;;-2.59;46.36;98619.88;10337144;28;20527;-59
2022/01/25 14:09:28;;;;;;;35.17;20.85;;;;;;;-2.61;45.07;98613.81;10336978;28;20071;-59
2022/01/25 14:25:06;;;;;;;46.03;29.48;;;;;;;-3.09;46.08;98627.59;10337078;28;20065;-59
2022/01/25 14:30:05;;;;;;;;;;;;;;;-3.17;46.09;98619.47;10337160;28;20053;-59
2022/01/25 14:35:09;;;;;;;39.92;23.63;;;;;;;-3.12;46.17;98609.63;10336334;28;20019;-59
2022/01/25 14:40:11;;;;;;;51.25;30.60;;;;;;;-3.64;45.38;98514.84;10336079;28;20069;-59
2022/01/25 14:45:14;;;;;;;49.55;30.38;;;;;;;-2.97;45.45;98610.66;10335710;28;20781;-59
2022/01/25 14:50:21;;;;;;;47.25;27.45;;;;;;;-2.91;47.64;98618.66;10334622;28;20059;-59
2022/01/25 14:55:23;;;;;;;46.75;26.83;;;;;;;-2.97;47.80;98628.44;10334886;28;20133;-59
2022/01/25 15:00:22;;;;;;;53.40;29.02;;;;;;;-3.06;49.09;98617.66;10336197;28;20443;-59
2022/01/25 15:05:21;;;;;;;62.22;34.83;;;;;;;-3.31;48.67;98634.59;10335490;28;20423;-59
2022/01/25 15:10:21;;;;;;;65.15;36.00;;;;;;;-3.82;49.30;98562.66;10334811;28;20029;-59
2022/01/25 15:15:34;;;;;;;61.58;33.33;;;;;;;-3.63;49.79;98620.56;10334240;28;20057;-59
2022/01/25 15:20:34;;;;;;;66.50;36.72;;;;;;;-3.67;49.78;98647.41;10333618;28;20065;-59
2022/01/25 15:25:34;;;;;;;95.22;50.65;;;;;;;-5.35;50.80;98393.34;10334070;28;20057;-59
2022/01/25 15:30:33;;;;;;;166.35;84.03;;;;;;;-4.18;51.54;98656.53;10333465;28;20061;-59
2022/01/25 15:35:32;;;;;;;158.75;83.65;;;;;;;-4.44;52.01;98654.69;10332994;28;20052;-59
2022/01/25 15:40:33;;;;;;;109.15;57.80;;;;;;;-4.58;53.35;98647.75;10332323;28;20092;-59
2022/01/25 15:45:43;;;;;;;108.10;56.00;;;;;;;-5.77;52.84;98477.97;10333722;28;20163;-59
2022/01/25 15:50:42;;;;;;;116.97;63.75;;;;;;;-5.60;54.32;98550.00;10333208;28;20068;-59
2022/01/25 15:55:42;;;;;;;85.35;49.17;;;;;;;-5.07;55.16;98669.47;10331064;28;20038;-59
2022/01/25 16:00:47;;;;;;;69.43;39.10;;;;;;;-5.35;54.81;98659.81;10331438;28;20076;-59
2022/01/25 16:05:47;;;;;;;85.30;43.80;;;;;;;-5.55;55.41;98663.34;10331945;28;20087;-59
2022/01/25 16:10:46;;;;;;;82.30;43.85;;;;;;;-5.78;55.26;98637.97;10311915;28;20507;-59
2022/01/25 16:15:45;;;;;;;129.25;65.40;;;;;;;-5.92;55.24;98650.44;10309838;28;20065;-59
2022/01/25 16:20:44;;;;;;;118.05;58.40;;;;;;;-6.11;56.05;98655.69;10303722;28;20490;-59
2022/01/25 16:25:44;;;;;;;;;;;;;;;-6.26;56.55;98661.19;10337160;28;20492;-59
2022/01/25 16:30:43;;;;;;;79.32;38.60;;;;;;;-6.44;56.61;98653.91;10332479;28;20307;-59
2022/01/25 16:35:42;;;;;;;;;;;;;;;-6.54;56.69;98656.47;10332088;28;20076;-59
2022/01/25 16:40:41;;;;;;;66.07;36.05;;;;;;;-6.96;56.59;98611.94;10330042;28;19967;-59
2022/01/25 16:45:40;;;;;;;;;;;;;;;-6.74;57.43;98645.69;10331061;28;20061;-59
2022/01/25 16:50:40;;;;;;;60.07;32.27;;;;;;;-6.84;57.42;98648.19;10329696;28;19948;-59
2022/01/25 16:55:39;;;;;;;64.05;34.35;;;;;;;-6.95;57.73;98646.47;10331430;28;20323;-59
2022/01/25 17:00:39;;;;;;;;;;;;;;;-7.06;57.86;98648.13;10332298;28;20408;-59
2022/01/25 17:05:39;;;;;;;86.65;40.53;;;;;;;-7.42;58.18;98604.00;10330739;28;19960;-59
2022/01/25 17:10:38;;;;;;;94.72;44.95;;;;;;;-7.25;59.18;98645.75;10337090;28;20061;-59
2022/01/25 17:15:37;;;;;;;84.60;42.25;;;;;;;-7.28;58.79;98653.03;10338627;28;20072;-59
2022/01/25 17:20:36;;;;;;;;;;;;;;;-7.39;59.71;98661.38;10338590;28;20057;-59
2022/01/25 17:25:36;;;;;;;293.27;121.63;;;;;;;-7.53;61.75;98664.38;10337977;28;19995;-59
2022/01/25 17:30:37;;;;;;;150.75;76.57;;;;;;;-7.92;60.87;98607.38;10338377;28;20542;-59
2022/01/25 17:35:36;;;;;;;75.25;39.47;;;;;;;-8.23;61.97;98598.09;10338105;28;20069;-59
2022/01/25 17:40:36;;;;;;;;;;;;;;;-7.88;62.74;98672.38;10333471;28;20472;-59
2022/01/25 17:45:36;;;;;;;143.48;66.72;;;;;;;-8.36;63.51;98632.16;10336321;28;19967;-59
2022/01/25 17:50:35;;;;;;;111.47;55.17;;;;;;;-8.78;63.20;98569.81;10336854;28;20061;-59
2022/01/25 17:55:34;;;;;;;;;;;;;;;-8.23;62.87;98683.69;10338144;28;20064;-59
2022/01/25 18:00:33;;;;;;;83.40;40.20;;;;;;;-8.77;63.12;98615.25;10337541;28;19986;-59
2022/01/25 18:05:32;;;;;;;150.05;73.10;;;;;;;-8.40;64.68;98696.44;10337216;28;20115;-59
2022/01/25 18:10:31;;;;;;;;;;;;;;;-8.50;63.89;98698.91;10337350;28;20067;-59
2022/01/25 18:15:31;;;;;;;204.63;99.13;;;;;;;-8.58;66.35;98710.81;10239091;28;19972;-59
2022/01/25 18:20:32;;;;;;;289.42;143.50;;;;;;;-8.81;66.88;98702.88;10335085;28;20520;-59
2022/01/25 18:30:34;;;;;;;356.33;174.32;;;;;;;-8.85;66.42;98700.06;10357300;28;20573;-59
2022/01/25 18:35:35;;;;;;;356.73;170.68;;;;;;;-8.77;66.05;98713.34;10364852;28;20072;-59
2022/01/25 18:40:34;;;;;;;213.07;104.28;;;;;;;-8.78;66.47;98720.75;10061348;28;20113;-60
2022/01/25 18:45:34;;;;;;;123.07;62.67;;;;;;;-9.31;66.35;98638.16;10354816;28;20048;-59
2022/01/25 18:50:34;;;;;;;127.88;62.80;;;;;;;-8.85;65.42;98722.69;10376463;28;20052;-59
2022/01/25 18:55:33;;;;;;;127.55;62.53;;;;;;;-8.97;65.59;98720.72;10376253;28;20488;-59
2022/01/25 19:00:32;;;;;;;148.23;73.80;;;;;;;-8.98;66.28;98729.91;10375092;28;20063;-59
2022/01/25 19:05:34;;;;;;;150.75;71.65;;;;;;;-9.03;65.88;98726.09;10374409;28;20083;-59
2022/01/25 19:10:33;;;;;;;206.77;97.95;;;;;;;-9.11;66.78;98724.50;10374423;28;20056;-59
2022/01/25 19:15:32;;;;;;;249.55;121.28;;;;;;;-9.30;66.53;98697.69;10371486;28;20098;-59
2022/01/25 19:20:31;;;;;;;260.50;122.07;;;;;;;-9.29;67.05;98699.50;10374953;28;20029;-59
2022/01/25 19:25:31;;;;;;;360.88;174.30;;;;;;;-9.31;67.58;98711.03;10374164;28;20641;-59
2022/01/25 19:30:30;;;;;;;428.10;213.65;;;;;;;-9.41;67.96;98703.41;10373671;28;20059;-59
2022/01/25 19:35:32;;;;;;;364.27;177.20;;;;;;;-9.60;68.01;98692.44;10373530;28;20072;-59
2022/01/25 19:40:34;;;;;;;323.73;160.38;;;;;;;-9.58;67.37;98696.84;10372953;28;20053;-59
2022/01/25 19:45:33;;;;;;;299.55;135.60;;;;;;;-10.02;67.84;98622.44;10369762;28;20547;-59
2022/01/25 19:50:39;;;;;;;385.20;179.75;;;;;;;-9.60;67.80;98695.81;10373233;28;20048;-59
2022/01/25 19:55:41;;;;;;;414.63;199.07;;;;;;;-9.71;68.44;98692.34;10372050;28;20067;-59
2022/01/25 20:00:42;;;;;;;425.55;206.00;;;;;;;-9.85;68.66;98692.69;10372938;28;20061;-59
2022/01/25 20:05:41;;;;;;;370.70;179.93;;;;;;;-10.14;68.84;98660.72;10372259;28;20076;-59
2022/01/25 20:10:42;;;;;;;367.00;172.10;;;;;;;-10.22;69.02;98648.22;10373357;28;20399;-59
2022/01/25 20:15:41;;;;;;;330.92;148.63;;;;;;;-10.04;68.72;98676.63;10345201;28;20073;-59
2022/01/25 20:20:55;;;;;;;290.38;136.05;;;;;;;-10.52;68.83;98598.56;10331778;28;20064;-59
2022/01/25 20:31:07;;;;;;;269.23;123.75;;;;;;;-10.11;68.96;98682.72;10332247;28;20057;-59
2022/01/25 20:36:07;;;;;;;291.58;138.25;;;;;;;-10.14;69.30;98679.91;10332054;28;20048;-59
2022/01/25 20:41:07;;;;;;;276.05;134.13;;;;;;;-10.14;69.43;98675.78;10332371;28;20061;-59
2022/01/25 20:46:06;;;;;;;296.70;140.52;;;;;;;-10.34;70.51;98673.03;10360553;28;20075;-59
2022/01/25 20:51:10;;;;;;;281.85;132.35;;;;;;;-10.27;70.40;98666.94;10380487;28;20009;-59
2022/01/25 20:56:17;;;;;;;323.42;146.10;;;;;;;-10.23;70.13;98676.53;10368903;28;20071;-59
2022/01/25 21:01:17;;;;;;;323.88;148.45;;;;;;;-11.01;70.72;98558.06;10353680;28;20069;-59
2022/01/25 21:11:33;;;;;;;482.65;227.55;;;;;;;-10.50;71.49;98684.88;10379114;28;20091;-59
2022/01/25 21:16:32;;;;;;;434.27;214.00;;;;;;;-10.56;71.14;98677.63;10377862;28;20068;-59
2022/01/25 21:21:33;;;;;;;431.48;206.07;;;;;;;-10.64;71.39;98681.94;10378912;28;20069;-58
2022/01/25 21:26:32;;;;;;;233.40;116.13;;;;;;;-10.82;71.14;98676.03;10379579;28;20063;-59
2022/01/25 21:31:31;;;;;;;158.85;72.80;;;;;;;-10.98;71.52;98683.69;10379155;28;20064;-59
2022/01/25 21:36:31;;;;;;;167.73;79.32;;;;;;;-11.09;71.63;98680.88;10379218;28;20115;-59
2022/01/25 21:41:30;;;;;;;261.65;119.45;;;;;;;-11.25;70.90;98666.00;10377195;28;20530;-59
2022/01/25 21:46:30;;;;;;;256.80;124.18;;;;;;;-11.17;71.88;98690.16;10373410;28;20428;-59
2022/01/25 21:51:29;;;;;;;293.30;136.48;;;;;;;-11.21;71.23;98693.09;10376011;28;20087;-59
2022/01/25 21:56:28;;;;;;;287.42;138.68;;;;;;;-11.14;70.72;98694.56;10377853;28;20029;-59
2022/01/25 22:01:28;;;;;;;326.13;148.02;;;;;;;-11.28;70.48;98663.19;10377740;28;20106;-59
2022/01/25 22:06:32;;;;;;;248.50;111.03;;;;;;;-11.07;70.91;98696.94;10378336;28;20084;-59
2022/01/25 22:11:34;;;;;;;226.60;104.72;;;;;;;-11.26;71.50;98682.63;10377492;28;20060;-59
2022/01/25 22:16:33;;;;;;;174.60;82.78;;;;;;;-11.31;70.51;98692.97;10374786;28;20145;-59
2022/01/25 22:21:32;;;;;;;168.68;78.80;;;;;;;-11.54;71.48;98675.66;10374152;28;20060;-59
2022/01/25 22:26:31;;;;;;;170.90;79.63;;;;;;;-11.55;71.27;98687.31;10376697;28;20036;-59
2022/01/25 22:31:30;;;;;;;167.43;76.97;;;;;;;-11.48;70.87;98696.31;10377360;28;20067;-59
2022/01/25 22:36:29;;;;;;;181.60;86.22;;;;;;;-11.97;71.21;98606.34;10377223;28;20062;-59
2022/01/25 22:41:28;;;;;;;182.98;89.72;;;;;;;-11.60;71.49;98663.44;10376864;28;20088;-59
2022/01/25 22:51:28;;;;;;;210.07;96.15;;;;;;;-11.43;70.99;98686.00;10372725;28;20053;-59
2022/01/25 22:56:27;;;;;;;293.65;128.85;;;;;;;-11.70;71.80;98628.19;10375532;28;20162;-59
2022/01/25 23:01:26;;;;;;;288.17;128.75;;;;;;;-11.54;71.66;98651.50;10375073;28;20123;-59
2022/01/25 23:06:25;;;;;;;266.70;121.57;;;;;;;-11.41;71.71;98669.53;10375266;28;20083;-59
2022/01/25 23:11:24;;;;;;;243.07;105.38;;;;;;;-11.41;70.62;98664.50;10374656;28;20021;-59
2022/01/25 23:16:30;;;;;;;240.85;104.00;;;;;;;-11.40;70.56;98660.38;10372022;28;20538;-59
2022/01/25 23:21:30;;;;;;;218.73;95.05;;;;;;;-11.62;71.66;98628.22;10368886;28;20122;-59
2022/01/25 23:26:29;;;;;;;210.02;95.05;;;;;;;-11.60;70.93;98615.88;10373625;28;20067;-59
2022/01/25 23:31:58;;;;;;;226.98;93.57;;;;;;;-11.42;72.02;98645.22;10375014;28;20053;-59
2022/01/25 23:36:59;;;;;;;212.63;94.50;;;;;;;-11.95;71.73;98549.84;10374626;28;20075;-59
2022/01/25 23:42:02;;;;;;;216.30;95.90;;;;;;;-11.45;70.82;98642.41;10374685;28;20068;-59
2022/01/25 23:47:08;;;;;;;213.05;92.70;;;;;;;-11.87;71.90;98567.34;10374086;28;20068;-59
2022/01/25 23:54:03;;;;;;;209.02;90.07;;;;;;;-11.52;71.74;98625.00;10371807;28;20511;-59
